Time;durP1;ratioP1;P1;durP2;ratioP2;P2;SDS_P1;SDS_P2;PMS_P1;PMS_P2;Temp;Humidity;BMP_temperature;BMP_pressure;BME280_temperature;BME280_humidity;BME280_pressure;Samples;Min_cycle;Max_cycle;Signal;HPM_P1;HPM_P2
2021/12/15 00:01:59;;;;;;;63.33;36.65;;;8.40;99.90;;;8.63;81.61;102274.34;4938579;23;20821;-74
2021/12/15 00:04:30;;;;;;;65.80;37.63;;;8.50;99.90;;;8.48;81.85;102278.59;4914111;29;20229;-74
2021/12/15 00:06:59;;;;;;;63.28;37.85;;;8.40;99.90;;;8.54;81.62;102273.41;4916573;29;20190;-71
2021/12/15 00:09:29;;;;;;;65.43;38.75;;;8.40;99.90;;;8.53;81.85;102273.56;4917322;29;20174;-75
2021/12/15 00:11:58;;;;;;;70.63;40.25;;;8.40;99.90;;;8.54;81.70;102273.41;4917052;29;20189;-74
2021/12/15 00:14:31;;;;;;;66.90;38.13;;;8.40;99.90;;;8.47;81.81;102266.13;4916843;29;20257;-76
2021/12/15 00:17:02;;;;;;;78.65;42.20;;;8.40;99.90;;;8.46;81.82;102261.72;4916885;29;20686;-75
2021/12/15 00:19:31;;;;;;;70.85;40.88;;;8.30;99.90;;;8.39;81.82;102268.72;4917122;29;20604;-73
2021/12/15 00:22:01;;;;;;;67.85;40.15;;;8.30;99.90;;;8.48;81.84;102274.03;4916439;29;20205;-74
2021/12/15 00:24:30;;;;;;;67.63;40.28;;;8.30;99.90;;;8.43;81.82;102265.56;4932032;29;20277;-73
2021/12/15 00:27:02;;;;;;;69.40;40.05;;;8.30;99.90;;;8.46;81.55;102267.97;4916954;29;20232;-74
2021/12/15 00:29:31;;;;;;;64.28;38.20;;;8.30;99.90;;;8.39;82.05;102268.72;4917499;29;20602;-74
2021/12/15 00:32:04;;;;;;;63.92;40.60;;;8.30;99.90;;;8.41;81.56;102266.72;4917283;29;20599;-75
2021/12/15 00:34:37;;;;;;;68.90;40.92;;;8.30;99.90;;;8.38;82.16;102269.72;4916652;29;20209;-73
2021/12/15 00:37:07;;;;;;;66.25;39.08;;;8.20;99.90;;;8.42;81.99;102265.72;4916315;29;20301;-75
2021/12/15 00:39:37;;;;;;;68.15;39.10;;;8.30;99.90;;;8.43;81.74;102267.41;4930279;29;20225;-73
2021/12/15 00:42:07;;;;;;;59.30;38.85;;;8.30;99.90;;;8.48;81.57;102260.53;4914794;29;20288;-74
2021/12/15 00:44:39;;;;;;;67.03;38.42;;;8.30;99.90;;;8.38;82.02;102272.41;4917389;29;20338;-71
2021/12/15 00:47:11;;;;;;;58.90;34.60;;;8.30;99.90;;;8.43;81.61;102270.09;4917447;29;20209;-73
2021/12/15 00:49:42;;;;;;;62.40;36.03;;;8.30;99.90;;;8.26;81.91;102267.25;4915767;29;20200;-72
2021/12/15 00:52:11;;;;;;;82.28;39.13;;;8.20;99.90;;;8.28;81.95;102267.91;4915646;29;20229;-74
2021/12/15 00:54:41;;;;;;;67.00;38.40;;;8.20;99.90;;;8.28;82.26;102272.47;4917094;29;20257;-74
2021/12/15 00:57:10;;;;;;;61.00;37.38;;;8.20;99.90;;;8.36;81.59;102280.69;4933290;29;20576;-73
2021/12/15 00:59:40;;;;;;;63.55;34.88;;;8.30;99.90;;;8.31;82.62;102276.75;4932526;29;20205;-74
2021/12/15 01:02:10;;;;;;;66.88;36.70;;;8.20;99.90;;;8.41;81.87;102285.63;4932401;29;20689;-74
2021/12/15 01:04:39;;;;;;;68.72;38.08;;;8.30;99.90;;;8.35;81.87;102289.78;4916970;29;20228;-76
2021/12/15 01:07:12;;;;;;;59.25;35.38;;;8.30;99.90;;;8.45;81.67;102285.16;4931127;29;20211;-76
2021/12/15 01:09:53;;;;;;;58.75;36.28;;;8.30;99.90;;;8.54;81.43;102284.22;4914935;29;20186;-74
2021/12/15 01:12:47;;;;;;;58.28;36.17;;;8.30;99.90;;;8.48;81.64;102300.16;4930771;29;20208;-74
2021/12/15 01:20:58;;;;;;;77.95;40.05;;;8.30;99.90;;;8.35;81.96;102295.16;4935227;29;20197;-73
2021/12/15 01:23:30;;;;;;;72.07;34.97;;;8.30;99.90;;;8.39;82.19;102295.69;4919901;29;20221;-75
2021/12/15 01:26:05;;;;;;;62.15;36.58;;;8.30;99.90;;;8.43;81.87;102297.94;4921423;29;20181;-72
2021/12/15 01:28:34;;;;;;;59.53;36.15;;;8.30;99.90;;;8.46;81.73;102297.66;4919059;29;20190;-73
2021/12/15 01:31:06;;;;;;;76.50;38.63;;;8.30;99.90;;;8.38;81.65;102299.41;4934838;29;20393;-75
2021/12/15 01:33:39;;;;;;;77.10;41.95;;;8.30;99.90;;;8.39;81.77;102301.09;4918721;29;20635;-76
2021/12/15 01:36:15;;;;;;;67.78;42.38;;;8.30;99.90;;;8.33;81.97;102297.16;4918102;29;20249;-74
2021/12/15 01:38:48;;;;;;;55.80;36.15;;;8.30;99.90;;;8.44;81.37;102302.34;4919279;29;20216;-73
2021/12/15 01:41:22;;;;;;;63.17;36.15;;;8.30;99.90;;;8.31;82.12;102292.94;4922505;29;20229;-73
2021/12/15 01:46:55;;;;;;;71.78;37.58;;;8.30;99.90;;;8.33;82.07;102299.03;4926643;29;20185;-74
2021/12/15 01:49:38;;;;;;;56.97;33.35;;;8.30;99.90;;;8.37;81.84;102298.56;4923541;29;20249;-73
2021/12/15 01:52:13;;;;;;;68.20;36.67;;;8.30;99.90;;;8.50;81.31;102301.72;4921908;29;20205;-74
2021/12/15 01:54:47;;;;;;;63.58;35.65;;;8.30;99.90;;;8.42;81.74;102295.41;4926659;29;20209;-75
2021/12/15 01:57:17;;;;;;;59.78;35.47;;;8.30;99.90;;;8.40;81.82;102297.41;4939201;29;20568;-74
2021/12/15 01:59:49;;;;;;;63.50;36.75;;;8.30;99.90;;;8.43;81.89;102294.38;4917187;29;20655;-72
2021/12/15 02:02:21;;;;;;;57.70;36.05;;;8.30;99.90;;;8.51;81.60;102294.47;4917119;29;20205;-75
2021/12/15 02:04:54;;;;;;;58.92;34.28;;;8.40;99.90;;;8.54;81.28;102294.16;4918562;29;20215;-74
2021/12/15 02:07:25;;;;;;;59.75;34.45;;;8.40;99.90;;;8.50;81.33;102281.97;4933581;29;20190;-75
2021/12/15 02:10:03;;;;;;;60.20;35.17;;;8.40;99.90;;;8.44;81.62;102293.38;4917697;29;20288;-74
2021/12/15 02:12:54;;;;;;;53.63;33.95;;;8.40;99.90;;;8.28;81.79;102284.09;4932822;29;20192;-74
2021/12/15 02:15:31;;;;;;;59.28;36.63;;;8.30;99.90;;;8.39;81.79;102285.75;4932747;29;20218;-74
2021/12/15 02:18:01;;;;;;;61.70;35.17;;;8.30;99.90;;;8.54;81.21;102288.75;4917707;29;20221;-75
2021/12/15 02:20:38;;;;;;;56.25;34.72;;;8.40;99.90;;;8.46;81.25;102289.56;4917353;29;20662;-74
2021/12/15 02:23:12;;;;;;;58.05;34.97;;;8.40;99.90;;;8.51;81.13;102289.09;4917000;29;20272;-75
2021/12/15 02:25:42;;;;;;;57.22;34.90;;;8.40;99.90;;;8.58;80.67;102285.59;4933058;29;20580;-74
2021/12/15 02:28:12;;;;;;;55.05;34.55;;;8.40;99.90;;;8.50;81.18;102281.97;4919446;29;20178;-74
2021/12/15 02:30:52;;;;;;;61.00;35.83;;;8.40;99.90;;;8.48;81.09;102289.38;4918767;29;20200;-73
2021/12/15 02:38:58;;;;;;;57.00;36.13;;;8.30;99.90;;;8.39;81.42;102296.56;4933053;29;20525;-75
2021/12/15 02:41:30;;;;;;;56.75;34.30;;;8.30;99.90;;;8.40;81.23;102289.31;4917538;29;20601;-75
2021/12/15 02:44:03;;;;;;;56.35;31.73;;;8.30;99.90;;;8.37;81.62;102297.72;4932914;29;20221;-75
2021/12/15 02:46:35;;;;;;;54.47;32.03;;;8.30;99.90;;;8.44;81.36;102290.69;4939250;29;20202;-74
2021/12/15 02:49:09;;;;;;;58.13;33.30;;;8.30;99.90;;;8.58;80.89;102295.53;4928770;29;20254;-75
2021/12/15 02:51:45;;;;;;;50.88;32.92;;;8.40;99.90;;;8.35;81.64;102294.31;4941342;29;20292;-72
2021/12/15 02:54:17;;;;;;;57.88;31.95;;;8.30;99.90;;;8.43;81.14;102297.09;4920191;29;20304;-75
2021/12/15 02:56:50;;;;;;;54.80;32.88;;;8.30;99.90;;;8.44;81.30;102301.47;4918552;29;20174;-75
2021/12/15 02:59:24;;;;;;;55.17;32.80;;;8.30;99.90;;;8.46;81.02;102307.59;4918509;29;20671;-72
2021/12/15 03:02:04;;;;;;;48.97;30.27;;;8.30;99.90;;;8.42;81.00;102300.81;4932963;29;20221;-75
2021/12/15 03:04:41;;;;;;;55.38;32.03;;;8.30;99.90;;;8.47;81.15;102301.19;4918576;29;20205;-75
2021/12/15 03:07:25;;;;;;;47.35;29.52;;;8.30;99.90;;;8.46;80.93;102302.19;4918944;29;20270;-75
2021/12/15 03:15:35;;;;;;;45.95;28.75;;;8.40;99.90;;;8.54;80.53;102305.81;4933121;29;20221;-74
2021/12/15 03:18:09;;;;;;;45.20;28.58;;;8.40;99.90;;;8.57;80.55;102299.22;4934671;29;20216;-75
2021/12/15 03:20:48;;;;;;;50.53;28.73;;;8.40;99.90;;;8.52;80.62;102294.31;4918804;29;20200;-75
2021/12/15 03:23:27;;;;;;;48.33;29.67;;;8.40;99.90;;;8.57;80.52;102283.91;4933913;29;20190;-72
2021/12/15 03:25:58;;;;;;;45.13;28.98;;;8.40;99.90;;;8.46;80.90;102294.09;4919066;29;20698;-73
2021/12/15 03:34:13;;;;;;;42.72;27.77;;;8.40;99.90;;;8.57;80.42;102296.53;4917552;29;20209;-73
2021/12/15 03:39:45;;;;;;;46.05;30.00;;;8.50;99.90;;;8.55;80.75;102290.47;4913331;29;20560;-74
2021/12/15 03:42:20;;;;;;;49.90;30.27;;;8.50;99.90;;;8.44;81.00;102283.44;4931795;29;20236;-75
2021/12/15 03:44:50;;;;;;;50.38;30.15;;;8.40;99.90;;;8.68;80.33;102282.81;4931581;29;20641;-75
2021/12/15 03:47:25;;;;;;;51.03;30.33;;;8.50;99.90;;;8.70;80.11;102289.75;4918153;29;20193;-74
2021/12/15 03:49:57;;;;;;;51.42;30.98;;;8.60;99.90;;;8.62;80.29;102278.03;4917785;29;20185;-73
2021/12/15 03:52:28;;;;;;;52.33;30.38;;;8.50;99.90;;;8.62;80.34;102280.72;4916817;29;20723;-74
2021/12/15 03:54:58;;;;;;;50.50;31.00;;;8.50;99.90;;;8.52;80.69;102280.00;4917206;29;20213;-73
2021/12/15 03:57:27;;;;;;;50.28;29.33;;;8.40;99.90;;;8.53;80.61;102281.66;4915524;29;20777;-73
2021/12/15 03:59:57;;;;;;;53.13;33.20;;;8.40;99.90;;;8.58;80.39;102273.94;4916367;29;20217;-74
2021/12/15 04:02:26;;;;;;;50.78;29.83;;;8.40;99.90;;;8.57;80.45;102280.34;4915898;29;20205;-73
2021/12/15 04:04:56;;;;;;;47.75;28.70;;;8.50;99.90;;;8.56;80.36;102293.03;4915095;29;20707;-73
2021/12/15 04:07:25;;;;;;;53.95;30.20;;;8.50;99.90;;;8.51;80.70;102283.69;4916582;29;20307;-73
2021/12/15 04:09:54;;;;;;;56.58;32.88;;;8.40;99.90;;;8.49;80.63;102282.97;4916906;29;20178;-73
2021/12/15 04:12:25;;;;;;;46.97;28.98;;;8.40;99.90;;;8.47;80.91;102287.69;4916900;29;20209;-75
2021/12/15 04:15:18;;;;;;;48.08;29.70;;;8.40;99.90;;;8.54;81.03;102284.22;4930598;29;20281;-73
2021/12/15 04:17:46;;;;;;;45.67;30.23;;;8.40;99.90;;;8.53;80.46;102290.59;4914674;29;20193;-73
2021/12/15 04:20:18;;;;;;;49.15;29.05;;;8.40;99.90;;;8.45;81.33;102290.53;4916120;29;20198;-74
2021/12/15 04:22:48;;;;;;;50.08;28.90;;;8.30;99.90;;;8.45;80.82;102285.16;4914885;29;20563;-74
2021/12/15 04:25:23;;;;;;;55.17;31.33;;;8.40;99.90;;;8.50;81.22;102290.09;4916034;29;20244;-75
2021/12/15 04:27:59;;;;;;;51.83;32.38;;;8.40;99.90;;;8.53;81.02;102287.91;4917147;29;20189;-75
2021/12/15 04:30:28;;;;;;;48.97;27.90;;;8.40;99.90;;;8.41;81.24;102282.91;4915443;29;20186;-74
2021/12/15 04:33:07;;;;;;;50.30;30.00;;;8.30;99.90;;;8.44;80.92;102288.00;4930572;29;20679;-73
2021/12/15 04:35:37;;;;;;;44.10;27.75;;;8.40;99.90;;;8.44;81.17;102279.91;4915089;29;20647;-75
2021/12/15 04:38:06;;;;;;;45.70;29.58;;;8.30;99.90;;;8.59;80.68;102286.44;4913923;29;20228;-74
2021/12/15 04:40:36;;;;;;;54.45;30.67;;;8.40;99.90;;;8.37;80.87;102278.84;4913418;29;20252;-73
2021/12/15 04:43:07;;;;;;;50.95;29.80;;;8.30;99.90;;;8.42;80.68;102287.31;4914948;29;20189;-74
2021/12/15 04:45:36;;;;;;;47.55;27.00;;;8.30;99.90;;;8.50;80.52;102290.09;4914570;29;20606;-75
2021/12/15 04:48:06;;;;;;;49.92;29.80;;;8.40;99.90;;;8.50;80.45;102303.56;4915132;29;20189;-74
2021/12/15 04:50:37;;;;;;;46.60;27.30;;;8.40;99.90;;;8.47;80.48;102298.50;4915139;29;20623;-74
2021/12/15 04:53:08;;;;;;;46.28;28.75;;;8.40;99.90;;;8.50;80.57;102298.19;4915058;29;20189;-72
2021/12/15 04:55:40;;;;;;;47.80;30.83;;;8.30;99.90;;;8.44;80.63;102305.03;4929406;29;20194;-72
2021/12/15 04:58:13;;;;;;;44.55;29.70;;;8.40;99.90;;;8.48;80.52;102306.41;4915204;29;20710;-73
2021/12/15 05:00:51;;;;;;;50.58;29.83;;;8.40;99.90;;;8.44;80.59;102309.56;4929823;29;20210;-74
2021/12/15 05:03:21;;;;;;;41.55;27.70;;;8.30;99.90;;;8.43;80.87;102321.34;4916028;29;20184;-73
2021/12/15 05:05:50;;;;;;;47.75;29.83;;;8.40;99.90;;;8.42;80.88;102327.78;4913899;29;20205;-73
2021/12/15 05:08:20;;;;;;;42.22;27.10;;;8.30;99.90;;;8.52;80.59;102323.16;4929661;29;20190;-74
2021/12/15 05:10:54;;;;;;;46.78;30.33;;;8.30;99.90;;;8.53;80.78;102331.09;4913309;29;20193;-72
2021/12/15 05:13:25;;;;;;;46.97;27.55;;;8.40;99.90;;;8.55;80.43;102330.94;4930249;29;20198;-76
2021/12/15 05:15:54;;;;;;;43.78;27.70;;;8.40;99.90;;;8.48;80.46;102317.19;4915620;29;20237;-73
2021/12/15 05:18:24;;;;;;;42.97;28.38;;;8.40;99.90;;;8.57;80.70;102327.06;4916162;29;20201;-74
2021/12/15 05:20:54;;;;;;;43.42;27.08;;;8.40;99.90;;;8.58;80.37;102326.06;4914787;29;20243;-76
2021/12/15 05:23:28;;;;;;;36.58;27.35;;;8.40;99.90;;;8.40;80.83;102321.69;4916781;29;20173;-74
2021/12/15 05:25:59;;;;;;;48.97;29.83;;;8.40;99.90;;;8.50;81.03;102330.56;4917602;29;20747;-74
2021/12/15 05:28:31;;;;;;;46.92;27.38;;;8.40;99.90;;;8.50;80.99;102328.69;4915136;29;20529;-73
2021/12/15 05:31:00;;;;;;;44.85;30.38;;;8.40;99.90;;;8.64;80.40;102327.31;4916436;29;20253;-75
2021/12/15 05:33:29;;;;;;;45.03;29.92;;;8.50;99.90;;;8.55;80.45;102328.25;4915090;29;20370;-74
2021/12/15 05:35:58;;;;;;;46.30;29.88;;;8.40;99.90;;;8.58;80.46;102327.91;4915968;29;20170;-76
2021/12/15 05:38:27;;;;;;;47.83;31.83;;;8.50;99.90;;;8.66;80.40;102339.66;4914770;29;20192;-75
2021/12/15 05:40:59;;;;;;;46.33;27.98;;;8.50;99.90;;;8.64;80.46;102333.56;4915859;29;20545;-75
2021/12/15 05:43:29;;;;;;;43.15;28.33;;;8.50;99.90;;;8.62;80.40;102329.31;4927340;23;20225;-70
2021/12/15 05:45:58;;;;;;;49.70;29.60;;;8.50;99.90;;;8.45;80.92;102330.16;4881776;29;20246;-72
2021/12/15 05:48:28;;;;;;;46.35;27.73;;;8.40;99.90;;;8.56;80.32;102332.66;4880809;29;20432;-71
2021/12/15 05:50:56;;;;;;;44.25;27.33;;;8.40;99.90;;;8.61;80.60;102328.47;4877970;29;20209;-71
2021/12/15 05:53:26;;;;;;;48.50;29.05;;;8.50;99.90;;;8.55;80.76;102330.94;4878064;29;20187;-73
2021/12/15 05:59:03;;;;;;;50.90;30.63;;;8.40;99.90;;;8.56;81.19;102341.59;4876327;29;20210;-64
2021/12/15 06:01:32;;;;;;;46.17;29.55;;;8.40;99.90;;;8.60;81.20;102344.81;4879781;29;20712;-65
2021/12/15 06:04:04;;;;;;;48.42;29.80;;;8.50;99.90;;;8.60;80.93;102342.13;4881330;29;20194;-64
2021/12/15 06:06:33;;;;;;;44.65;28.42;;;8.50;99.90;;;8.59;81.19;102353.91;4895321;29;20696;-63
2021/12/15 06:09:06;;;;;;;43.90;28.35;;;8.40;99.90;;;8.61;80.77;102349.22;4880951;29;20219;-64
2021/12/15 06:11:36;;;;;;;44.47;28.35;;;8.50;99.90;;;8.61;80.84;102355.47;4881229;29;20178;-65
2021/12/15 06:14:08;;;;;;;45.20;28.30;;;8.50;99.90;;;8.45;81.11;102355.28;4881450;29;20232;-65
2021/12/15 06:16:38;;;;;;;43.90;29.55;;;8.40;99.90;;;8.57;81.06;102354.06;4881167;29;20286;-64
2021/12/15 06:19:08;;;;;;;43.10;27.85;;;8.40;99.90;;;8.58;80.98;102354.91;4881101;29;20203;-64
2021/12/15 06:21:36;;;;;;;47.60;30.83;;;8.40;99.90;;;8.62;80.83;102354.44;4880856;29;20222;-64
2021/12/15 06:24:06;;;;;;;48.83;29.45;;;8.50;99.90;;;8.68;80.45;102356.53;4880989;29;20215;-65
2021/12/15 06:26:35;;;;;;;43.60;27.77;;;8.50;99.90;;;8.81;79.96;102358.00;4881114;29;20289;-61
2021/12/15 06:29:05;;;;;;;43.13;31.42;;;8.60;99.90;;;8.81;80.28;102358.81;4880849;29;20314;-64
2021/12/15 06:31:34;;;;;;;39.80;26.02;;;8.70;99.90;;;8.75;80.29;102358.63;4880986;29;20183;-64
2021/12/15 06:34:03;;;;;;;44.85;28.23;;;8.60;99.90;;;8.73;80.38;102358.75;4880919;29;20195;-64
2021/12/15 06:36:33;;;;;;;51.50;29.27;;;8.60;99.90;;;8.78;80.54;102356.44;4880529;29;20218;-65
2021/12/15 06:39:06;;;;;;;43.80;28.55;;;8.60;99.90;;;8.77;80.18;102359.28;4880652;29;20563;-64
2021/12/15 06:41:35;;;;;;;47.00;28.70;;;8.70;99.90;;;8.67;80.82;102354.81;4880475;29;20203;-64
2021/12/15 06:44:06;;;;;;;42.85;27.80;;;8.50;99.90;;;8.70;80.64;102364.47;4880414;29;20251;-63
2021/12/15 06:47:01;;;;;;;42.83;25.95;;;8.60;99.90;;;8.78;80.25;102361.00;4880512;29;20568;-64
2021/12/15 07:00:44;;;;;;;39.70;27.30;;;8.70;99.90;;;8.82;79.88;102356.97;4880647;29;20237;-64
2021/12/15 07:03:16;;;;;;;38.88;23.90;;;8.70;99.90;;;8.79;79.98;102363.56;4880998;29;20187;-64
2021/12/15 07:05:45;;;;;;;40.67;26.10;;;8.70;99.90;;;8.76;80.07;102361.19;4881436;29;20175;-64
2021/12/15 07:08:15;;;;;;;38.30;26.50;;;8.70;99.90;;;8.70;80.28;102369.88;4881003;29;20649;-64
2021/12/15 07:10:49;;;;;;;37.13;25.52;;;8.60;99.90;;;8.71;80.71;102372.41;4881321;29;20187;-64
2021/12/15 07:13:19;;;;;;;41.35;26.88;;;8.60;99.90;;;8.80;80.15;102376.06;4883089;29;20183;-64
2021/12/15 07:15:59;;;;;;;35.33;24.52;;;8.60;99.90;;;8.72;80.26;102373.25;4883822;29;20211;-64
2021/12/15 07:18:41;;;;;;;38.67;27.67;;;8.60;99.90;;;8.80;80.15;102386.84;4884442;29;20548;-64
2021/12/15 07:21:17;;;;;;;36.58;25.45;;;8.60;99.90;;;8.87;80.04;102387.91;4883477;29;20214;-64
2021/12/15 07:23:48;;;;;;;36.97;24.02;;;8.70;99.90;;;8.90;79.81;102384.91;4880713;29;20619;-64
2021/12/15 07:26:17;;;;;;;34.20;25.10;;;8.70;99.90;;;8.91;79.55;102389.28;4882589;29;20205;-65
2021/12/15 07:28:47;;;;;;;29.27;22.45;;;8.80;99.90;;;8.92;79.61;102390.16;4880192;29;20183;-64
2021/12/15 07:31:18;;;;;;;33.17;23.98;;;8.80;99.90;;;8.84;79.55;102388.22;4880139;29;20538;-65
2021/12/15 07:33:48;;;;;;;34.65;24.52;;;8.70;99.90;;;8.81;79.93;102388.53;4880665;29;20357;-63
2021/12/15 07:36:17;;;;;;;32.28;23.55;;;8.70;99.90;;;8.80;80.06;102384.16;4880139;29;20175;-65
2021/12/15 07:38:46;;;;;;;34.17;22.35;;;8.70;99.90;;;8.82;80.01;102395.63;4881826;29;20237;-65
2021/12/15 07:41:27;;;;;;;35.25;22.52;;;8.70;99.90;;;8.88;79.94;102391.47;4882869;29;20418;-65
2021/12/15 07:44:00;;;;;;;32.85;23.85;;;8.70;99.90;;;8.88;79.55;102389.63;4881229;29;20363;-64
2021/12/15 07:46:53;;;;;;;33.88;23.75;;;8.80;99.90;;;8.78;80.01;102388.00;4895000;29;20223;-64
2021/12/15 07:49:24;;;;;;;30.55;21.83;;;8.70;99.90;;;8.82;79.95;102386.69;4881081;29;20194;-65
2021/12/15 07:52:00;;;;;;;36.20;24.25;;;8.70;99.90;;;8.85;79.89;102395.34;4881629;29;20586;-65
2021/12/15 07:54:32;;;;;;;33.53;24.17;;;8.70;99.90;;;8.89;79.71;102396.72;4883339;29;20663;-65
2021/12/15 07:57:01;;;;;;;33.15;23.13;;;8.70;99.90;;;8.80;79.98;102400.34;4897324;29;20242;-65
2021/12/15 07:59:31;;;;;;;33.58;23.05;;;8.70;99.90;;;8.83;80.04;102397.34;4883571;29;20187;-65
2021/12/15 08:02:01;;;;;;;30.70;21.27;;;8.70;99.90;;;8.86;79.99;102396.19;4883860;29;20207;-64
2021/12/15 08:04:30;;;;;;;37.72;24.10;;;8.70;99.90;;;8.77;80.17;102399.78;4881117;29;20183;-64
2021/12/15 08:06:59;;;;;;;30.67;21.10;;;8.70;99.90;;;8.90;80.04;102397.56;4880935;29;20238;-65
2021/12/15 08:09:28;;;;;;;32.25;23.05;;;8.70;99.90;;;8.94;79.62;102404.34;4879453;29;20266;-65
2021/12/15 08:11:57;;;;;;;31.55;22.08;;;8.70;99.90;;;8.95;79.60;102401.50;4879519;29;20199;-64
2021/12/15 08:14:30;;;;;;;31.85;22.35;;;8.80;99.90;;;8.90;79.92;102414.63;4879743;29;20193;-63
2021/12/15 08:17:01;;;;;;;33.80;21.50;;;8.80;99.90;;;8.95;79.38;102412.31;4879371;29;20227;-64
2021/12/15 08:19:29;;;;;;;25.63;18.40;;;8.80;99.90;;;8.88;79.55;102415.75;4879571;29;20199;-64
2021/12/15 08:21:58;;;;;;;35.58;21.85;;;8.80;99.90;;;8.85;80.01;102416.94;4879423;29;20214;-64
2021/12/15 08:24:27;;;;;;;39.80;24.30;;;8.80;99.90;;;8.88;80.01;102411.22;4879479;29;20695;-64
2021/12/15 08:26:56;;;;;;;31.60;21.52;;;8.70;99.90;;;8.82;80.22;102417.22;4880038;29;20259;-66
2021/12/15 08:29:25;;;;;;;35.50;21.95;;;8.70;99.90;;;9.06;79.49;102420.16;4893873;29;20237;-65
2021/12/15 08:31:54;;;;;;;32.45;23.60;;;8.80;99.90;;;9.04;79.36;102418.63;4879321;29;20195;-65
2021/12/15 08:34:24;;;;;;;30.55;22.52;;;8.90;99.90;;;9.00;79.76;102420.78;4879248;29;20179;-64
2021/12/15 08:36:54;;;;;;;27.50;20.98;;;8.90;99.90;;;9.06;79.31;102414.75;4879130;29;20210;-65
2021/12/15 08:39:23;;;;;;;29.52;21.42;;;8.90;99.90;;;9.10;79.28;102421.53;4879236;29;20279;-65
2021/12/15 08:41:52;;;;;;;32.22;22.10;;;8.90;99.90;;;9.09;79.13;102427.09;4878810;29;20230;-64
2021/12/15 08:44:21;;;;;;;30.10;21.67;;;9.00;99.90;;;8.89;79.74;102429.13;4879192;29;20190;-64
2021/12/15 08:46:51;;;;;;;31.60;22.73;;;8.90;99.90;;;9.09;79.38;102429.81;4878859;29;20241;-65
2021/12/15 08:49:23;;;;;;;29.90;21.30;;;8.90;99.90;;;9.01;79.52;102438.66;4879129;29;20202;-64
2021/12/15 08:51:53;;;;;;;35.22;22.75;;;8.90;99.90;;;8.98;79.83;102433.59;4879142;29;20621;-65
2021/12/15 08:54:24;;;;;;;34.53;22.02;;;8.90;99.90;;;9.08;79.87;102431.66;4878651;29;20191;-63
2021/12/15 08:56:55;;;;;;;32.55;20.95;;;8.90;99.90;;;9.11;79.61;102436.75;4878492;29;20786;-64
2021/12/15 08:59:24;;;;;;;31.27;23.58;;;9.00;99.90;;;9.21;79.12;102431.25;4877697;29;20660;-65
2021/12/15 09:01:54;;;;;;;30.52;22.38;;;9.00;99.90;;;9.19;79.29;102429.72;4879012;29;20221;-65
2021/12/15 09:04:24;;;;;;;35.00;24.50;;;9.00;99.90;;;9.23;79.25;102433.81;4878810;29;20183;-65
2021/12/15 09:06:58;;;;;;;36.83;23.83;;;9.00;99.90;;;9.25;78.82;102437.19;4878793;29;20211;-64
2021/12/15 09:09:27;;;;;;;32.58;23.20;;;9.10;99.90;;;9.25;79.20;102435.34;4888612;29;20257;-64
2021/12/15 09:11:57;;;;;;;33.38;22.15;;;9.10;99.90;;;9.29;78.77;102436.75;4897447;29;20190;-63
2021/12/15 09:14:26;;;;;;;33.85;24.52;;;9.10;99.90;;;9.40;78.96;102432.91;4897025;29;20285;-65
2021/12/15 09:16:58;;;;;;;28.80;20.10;;;9.20;99.90;;;9.46;78.63;102445.81;4897593;29;20220;-64
2021/12/15 09:19:28;;;;;;;31.85;22.17;;;9.20;99.90;;;9.54;78.15;102430.50;4897543;29;20855;-65
2021/12/15 09:21:59;;;;;;;32.20;24.23;;;9.30;99.90;;;9.45;78.27;102436.00;4897024;29;20194;-64
2021/12/15 09:24:28;;;;;;;30.15;21.80;;;9.30;99.90;;;9.43;78.53;102438.03;4880934;29;20473;-64
2021/12/15 09:26:58;;;;;;;30.08;21.38;;;9.30;99.90;;;9.59;78.22;102438.13;4890719;29;20297;-65
2021/12/15 09:29:27;;;;;;;32.20;21.27;;;9.30;99.90;;;9.62;78.38;102437.81;4897189;29;20209;-64
2021/12/15 09:31:57;;;;;;;29.30;20.90;;;9.40;99.90;;;9.64;77.74;102434.94;4895729;29;20839;-65
2021/12/15 09:34:26;;;;;;;33.17;21.57;;;9.40;99.90;;;9.54;78.26;102440.44;4897099;29;20843;-64
2021/12/15 09:36:57;;;;;;;28.63;23.10;;;9.40;99.90;;;9.59;78.23;102435.41;4899409;29;20481;-63
2021/12/15 09:39:27;;;;;;;29.17;20.30;;;9.40;99.90;;;9.75;77.79;102440.94;4901100;29;20242;-63
2021/12/15 09:42:20;;;;;;;30.40;20.90;;;9.50;99.90;;;9.55;78.35;102431.34;4864251;29;20504;-64
2021/12/15 09:44:53;;;;;;;29.40;21.65;;;9.40;99.90;;;9.62;78.20;102434.28;4863685;29;20236;-63
2021/12/15 09:47:40;;;;;;;31.33;22.07;;;9.50;99.90;;;9.57;78.20;102445.56;4863777;29;20215;-64
2021/12/15 10:04:22;;;;;;;34.43;24.27;;;9.40;99.90;;;9.51;78.86;102425.41;4881286;29;20434;-66
2021/12/15 10:10:38;;;;;;;30.40;21.80;;;9.40;99.90;;;9.54;78.72;102425.09;4881516;29;20799;-64
2021/12/15 10:18:50;;;;;;;36.80;26.90;;;9.40;99.90;;;9.51;79.10;102421.88;4881259;29;20243;-65
2021/12/15 10:21:26;;;;;;;36.65;24.17;;;9.40;99.90;;;9.46;78.99;102416.09;4880911;29;20219;-65
2021/12/15 10:23:56;;;;;;;36.25;23.45;;;9.30;99.90;;;9.64;79.00;102416.88;4880896;29;20235;-65
2021/12/15 10:26:25;;;;;;;32.35;22.45;;;9.40;99.90;;;9.69;78.21;102417.25;4880616;29;20217;-66
2021/12/15 10:28:56;;;;;;;37.88;25.27;;;9.50;99.90;;;9.71;78.32;102409.84;4880991;29;20532;-67
2021/12/15 10:31:28;;;;;;;32.33;23.08;;;9.50;99.90;;;9.75;78.39;102411.22;4881478;29;20285;-66
2021/12/15 10:34:03;;;;;;;30.63;23.27;;;9.50;99.90;;;9.77;78.02;102411.91;4882419;29;20237;-65
2021/12/15 10:36:34;;;;;;;32.87;22.80;;;9.60;99.90;;;9.83;77.82;102408.53;4880378;29;20454;-65
2021/12/15 10:39:08;;;;;;;33.23;23.63;;;9.60;99.90;;;9.85;77.69;102406.53;4880589;29;20430;-66
2021/12/15 10:41:40;;;;;;;28.00;20.60;;;9.70;99.90;;;9.73;77.99;102410.50;4880358;29;20445;-66
2021/12/15 10:44:14;;;;;;;30.40;22.60;;;9.60;99.90;;;9.73;77.84;102413.22;4880274;29;20431;-68
2021/12/15 10:46:49;;;;;;;31.20;23.00;;;9.60;99.90;;;9.59;78.37;102411.09;4879509;29;20473;-67
2021/12/15 10:49:24;;;;;;;31.50;22.10;;;9.50;99.90;;;9.69;78.34;102411.00;4880191;29;20451;-67
2021/12/15 10:52:00;;;;;;;29.80;21.53;;;9.50;99.90;;;9.73;78.16;102407.81;4880194;29;20426;-67
2021/12/15 10:54:33;;;;;;;27.83;20.07;;;9.60;99.90;;;9.62;78.58;102413.50;4880034;29;20418;-65
2021/12/15 10:57:08;;;;;;;29.13;22.43;;;9.50;99.90;;;9.73;78.13;102404.28;4880100;29;20466;-66
2021/12/15 10:59:44;;;;;;;28.45;20.10;;;9.60;99.90;;;9.71;78.18;102407.13;4879839;29;20427;-66
2021/12/15 11:02:33;;;;;;;33.63;18.80;;;9.50;99.90;;;9.73;78.19;102418.63;4879961;29;20624;-67
2021/12/15 11:05:07;;;;;;;31.70;22.80;;;9.60;99.90;;;9.78;77.86;102410.88;4880103;29;20431;-67
2021/12/15 11:07:41;;;;;;;28.60;19.73;;;9.60;99.90;;;9.72;77.92;102414.25;4879348;29;20219;-68
2021/12/15 11:10:14;;;;;;;27.13;19.00;;;9.60;99.90;;;9.68;78.18;102420.97;4899276;23;20855;-69
2021/12/15 11:12:49;;;;;;;26.47;19.60;;;9.60;99.90;;;9.83;77.77;102419.34;4909862;29;20444;-68
2021/12/15 11:15:26;;;;;;;23.65;17.10;;;9.60;99.90;;;9.83;77.50;102413.94;4902889;29;20420;-68
2021/12/15 11:17:58;;;;;;;26.98;18.85;;;9.70;99.90;;;9.86;77.70;102419.06;4902969;29;20213;-68
2021/12/15 11:20:31;;;;;;;22.45;16.73;;;9.70;99.90;;;9.83;77.64;102421.22;4911373;29;20214;-71
2021/12/15 11:23:03;;;;;;;25.63;19.27;;;9.70;99.90;;;9.96;77.51;102413.53;4921323;29;20209;-71
2021/12/15 11:25:40;;;;;;;23.13;17.63;;;9.70;99.90;;;10.08;76.97;102416.78;4921309;29;20456;-70
2021/12/15 11:28:18;;;;;;;23.83;17.33;;;9.80;99.90;;;9.96;77.28;102410.81;4918995;29;20506;-69
2021/12/15 11:30:56;;;;;;;26.37;19.77;;;9.80;99.90;;;10.01;77.27;102412.03;4917173;29;21008;-68
2021/12/15 11:33:29;;;;;;;25.87;19.73;;;9.80;99.90;;;10.16;76.78;102409.59;4915408;29;20432;-68
2021/12/15 11:36:04;;;;;;;25.37;18.17;;;9.90;99.90;;;10.18;76.58;102407.56;4918781;29;20437;-71
2021/12/15 11:38:37;;;;;;;21.53;16.70;;;9.90;99.90;;;10.25;76.37;102408.63;4918314;29;20429;-69
2021/12/15 11:41:13;;;;;;;22.70;19.10;;;10.00;99.90;;;10.19;76.42;102397.59;4919865;29;20453;-67